sensor_id;sensor_type;location;lat;lon;timestamp;P1;durP1;ratioP1;P2;durP2;ratioP2
77612;SDS011;66777;52.282;5.960;2023-07-24T00:00:16;778.15;;;740.17;;
77612;SDS011;66777;52.282;5.960;2023-07-24T00:02:43;775.05;;;738.08;;
77612;SDS011;66777;52.282;5.960;2023-07-24T00:05:08;765.88;;;729.58;;
77612;SDS011;66777;52.282;5.960;2023-07-24T00:07:36;770.25;;;733.65;;
77612;SDS011;66777;52.282;5.960;2023-07-24T00:10:06;768.42;;;732.15;;
77612;SDS011;66777;52.282;5.960;2023-07-24T00:12:33;773.03;;;736.47;;
77612;SDS011;66777;52.282;5.960;2023-07-24T00:14:59;773.83;;;736.60;;
77612;SDS011;66777;52.282;5.960;2023-07-24T00:17:25;780.30;;;742.60;;
77612;SDS011;66777;52.282;5.960;2023-07-24T00:19:50;780.70;;;743.05;;
77612;SDS011;66777;52.282;5.960;2023-07-24T00:22:16;771.10;;;734.40;;
77612;SDS011;66777;52.282;5.960;2023-07-24T00:24:42;770.85;;;734.97;;
77612;SDS011;66777;52.282;5.960;2023-07-24T00:27:07;775.85;;;738.38;;
77612;SDS011;66777;52.282;5.960;2023-07-24T00:29:33;772.08;;;734.92;;
77612;SDS011;66777;52.282;5.960;2023-07-24T00:31:58;773.53;;;736.13;;
77612;SDS011;66777;52.282;5.960;2023-07-24T00:34:24;772.60;;;735.70;;
77612;SDS011;66777;52.282;5.960;2023-07-24T00:36:50;769.65;;;733.00;;
77612;SDS011;66777;52.282;5.960;2023-07-24T00:39:16;773.15;;;736.80;;
77612;SDS011;66777;52.282;5.960;2023-07-24T00:41:42;771.08;;;734.90;;
77612;SDS011;66777;52.282;5.960;2023-07-24T00:44:08;763.95;;;728.67;;
77612;SDS011;66777;52.282;5.960;2023-07-24T00:46:38;767.40;;;731.85;;
77612;SDS011;66777;52.282;5.960;2023-07-24T00:49:04;772.40;;;736.08;;
77612;SDS011;66777;52.282;5.960;2023-07-24T00:51:31;770.95;;;734.20;;
77612;SDS011;66777;52.282;5.960;2023-07-24T00:54:00;761.80;;;726.75;;
77612;SDS011;66777;52.282;5.960;2023-07-24T00:56:27;773.72;;;736.95;;
77612;SDS011;66777;52.282;5.960;2023-07-24T00:58:54;774.97;;;738.10;;
77612;SDS011;66777;52.282;5.960;2023-07-24T01:01:23;770.10;;;733.15;;
77612;SDS011;66777;52.282;5.960;2023-07-24T01:03:50;765.80;;;730.13;;
77612;SDS011;66777;52.282;5.960;2023-07-24T01:06:17;766.90;;;730.92;;
77612;SDS011;66777;52.282;5.960;2023-07-24T01:11:19;776.65;;;740.05;;
77612;SDS011;66777;52.282;5.960;2023-07-24T01:13:56;767.15;;;731.47;;
77612;SDS011;66777;52.282;5.960;2023-07-24T01:16:41;764.03;;;729.20;;
77612;SDS011;66777;52.282;5.960;2023-07-24T01:19:11;768.67;;;733.03;;
77612;SDS011;66777;52.282;5.960;2023-07-24T01:21:52;768.78;;;733.67;;
77612;SDS011;66777;52.282;5.960;2023-07-24T01:24:37;770.92;;;734.78;;
77612;SDS011;66777;52.282;5.960;2023-07-24T01:27:26;767.67;;;732.00;;
77612;SDS011;66777;52.282;5.960;2023-07-24T01:29:51;764.00;;;728.85;;
77612;SDS011;66777;52.282;5.960;2023-07-24T01:32:24;769.42;;;733.72;;
77612;SDS011;66777;52.282;5.960;2023-07-24T01:34:56;761.83;;;727.13;;
77612;SDS011;66777;52.282;5.960;2023-07-24T01:37:22;758.17;;;723.92;;
77612;SDS011;66777;52.282;5.960;2023-07-24T01:39:49;768.00;;;732.42;;
77612;SDS011;66777;52.282;5.960;2023-07-24T01:42:16;768.50;;;732.88;;
77612;SDS011;66777;52.282;5.960;2023-07-24T01:44:43;770.38;;;734.95;;
77612;SDS011;66777;52.282;5.960;2023-07-24T01:47:09;765.38;;;730.63;;
77612;SDS011;66777;52.282;5.960;2023-07-24T01:49:41;768.22;;;732.38;;
77612;SDS011;66777;52.282;5.960;2023-07-24T01:52:06;763.38;;;728.20;;
77612;SDS011;66777;52.282;5.960;2023-07-24T01:54:32;763.25;;;728.45;;
77612;SDS011;66777;52.282;5.960;2023-07-24T01:56:58;771.83;;;735.67;;
77612;SDS011;66777;52.282;5.960;2023-07-24T01:59:24;768.53;;;733.17;;
77612;SDS011;66777;52.282;5.960;2023-07-24T02:01:51;765.13;;;729.92;;
77612;SDS011;66777;52.282;5.960;2023-07-24T02:04:19;762.50;;;727.38;;
77612;SDS011;66777;52.282;5.960;2023-07-24T02:06:47;761.10;;;725.95;;
77612;SDS011;66777;52.282;5.960;2023-07-24T02:09:13;769.50;;;734.10;;
77612;SDS011;66777;52.282;5.960;2023-07-24T02:11:39;768.30;;;733.03;;
77612;SDS011;66777;52.282;5.960;2023-07-24T02:14:05;763.20;;;728.08;;
77612;SDS011;66777;52.282;5.960;2023-07-24T02:16:31;768.25;;;733.10;;
77612;SDS011;66777;52.282;5.960;2023-07-24T02:18:56;765.13;;;730.05;;
77612;SDS011;66777;52.282;5.960;2023-07-24T02:21:22;766.35;;;731.45;;
77612;SDS011;66777;52.282;5.960;2023-07-24T02:26:18;773.28;;;736.65;;
77612;SDS011;66777;52.282;5.960;2023-07-24T02:28:44;768.90;;;733.10;;
77612;SDS011;66777;52.282;5.960;2023-07-24T02:31:10;774.72;;;738.03;;
77612;SDS011;66777;52.282;5.960;2023-07-24T02:33:35;772.63;;;735.78;;
77612;SDS011;66777;52.282;5.960;2023-07-24T02:36:01;771.17;;;734.40;;
77612;SDS011;66777;52.282;5.960;2023-07-24T02:38:27;769.50;;;733.17;;
77612;SDS011;66777;52.282;5.960;2023-07-24T02:40:54;770.90;;;733.88;;
77612;SDS011;66777;52.282;5.960;2023-07-24T02:43:19;768.03;;;732.40;;
77612;SDS011;66777;52.282;5.960;2023-07-24T02:45:45;771.03;;;734.35;;
77612;SDS011;66777;52.282;5.960;2023-07-24T02:48:11;771.10;;;734.40;;
77612;SDS011;66777;52.282;5.960;2023-07-24T02:50:38;772.55;;;735.80;;
77612;SDS011;66777;52.282;5.960;2023-07-24T02:53:05;776.60;;;739.67;;
77612;SDS011;66777;52.282;5.960;2023-07-24T02:55:31;772.83;;;736.20;;
77612;SDS011;66777;52.282;5.960;2023-07-24T03:00:25;775.83;;;739.00;;
77612;SDS011;66777;52.282;5.960;2023-07-24T03:02:52;774.55;;;737.88;;
77612;SDS011;66777;52.282;5.960;2023-07-24T03:05:17;767.08;;;731.40;;
77612;SDS011;66777;52.282;5.960;2023-07-24T03:07:43;769.13;;;733.47;;
77612;SDS011;66777;52.282;5.960;2023-07-24T03:10:10;771.10;;;735.58;;
77612;SDS011;66777;52.282;5.960;2023-07-24T03:12:37;767.42;;;731.40;;
77612;SDS011;66777;52.282;5.960;2023-07-24T03:15:03;772.33;;;736.40;;
77612;SDS011;66777;52.282;5.960;2023-07-24T03:17:29;768.92;;;732.65;;
77612;SDS011;66777;52.282;5.960;2023-07-24T03:19:56;773.55;;;737.28;;
77612;SDS011;66777;52.282;5.960;2023-07-24T03:22:21;770.25;;;733.72;;
77612;SDS011;66777;52.282;5.960;2023-07-24T03:24:49;773.78;;;736.97;;
77612;SDS011;66777;52.282;5.960;2023-07-24T03:27:15;766.55;;;730.42;;
77612;SDS011;66777;52.282;5.960;2023-07-24T03:29:40;770.72;;;734.10;;
77612;SDS011;66777;52.282;5.960;2023-07-24T03:32:06;770.53;;;733.80;;
77612;SDS011;66777;52.282;5.960;2023-07-24T03:34:32;771.42;;;734.60;;
77612;SDS011;66777;52.282;5.960;2023-07-24T03:36:58;778.17;;;741.03;;
77612;SDS011;66777;52.282;5.960;2023-07-24T03:39:25;766.97;;;731.08;;
77612;SDS011;66777;52.282;5.960;2023-07-24T03:41:51;769.53;;;733.08;;
77612;SDS011;66777;52.282;5.960;2023-07-24T03:44:17;776.28;;;739.10;;
77612;SDS011;66777;52.282;5.960;2023-07-24T03:46:43;771.03;;;734.28;;
77612;SDS011;66777;52.282;5.960;2023-07-24T03:49:09;771.50;;;735.08;;
77612;SDS011;66777;52.282;5.960;2023-07-24T03:51:35;772.40;;;735.47;;
77612;SDS011;66777;52.282;5.960;2023-07-24T03:54:02;770.22;;;734.25;;
77612;SDS011;66777;52.282;5.960;2023-07-24T03:56:28;771.58;;;735.35;;
77612;SDS011;66777;52.282;5.960;2023-07-24T03:58:55;769.55;;;733.65;;
77612;SDS011;66777;52.282;5.960;2023-07-24T04:01:20;770.65;;;734.30;;
77612;SDS011;66777;52.282;5.960;2023-07-24T04:03:46;770.58;;;733.85;;
77612;SDS011;66777;52.282;5.960;2023-07-24T04:06:11;772.47;;;735.72;;
77612;SDS011;66777;52.282;5.960;2023-07-24T04:08:37;774.03;;;737.10;;
77612;SDS011;66777;52.282;5.960;2023-07-24T04:11:03;768.97;;;732.17;;
77612;SDS011;66777;52.282;5.960;2023-07-24T04:13:29;762.08;;;726.60;;
77612;SDS011;66777;52.282;5.960;2023-07-24T04:15:55;765.75;;;730.10;;
77612;SDS011;66777;52.282;5.960;2023-07-24T04:18:32;769.60;;;733.83;;
77612;SDS011;66777;52.282;5.960;2023-07-24T04:20:59;765.38;;;729.90;;
77612;SDS011;66777;52.282;5.960;2023-07-24T04:23:25;770.28;;;734.30;;
77612;SDS011;66777;52.282;5.960;2023-07-24T04:25:58;768.38;;;732.15;;
77612;SDS011;66777;52.282;5.960;2023-07-24T04:28:24;766.85;;;731.38;;
77612;SDS011;66777;52.282;5.960;2023-07-24T04:30:50;765.10;;;729.53;;
77612;SDS011;66777;52.282;5.960;2023-07-24T04:33:17;767.13;;;731.63;;
77612;SDS011;66777;52.282;5.960;2023-07-24T04:35:43;770.75;;;734.17;;
77612;SDS011;66777;52.282;5.960;2023-07-24T04:38:19;773.28;;;736.30;;
77612;SDS011;66777;52.282;5.960;2023-07-24T04:40:52;766.80;;;731.25;;
77612;SDS011;66777;52.282;5.960;2023-07-24T04:43:18;768.97;;;733.17;;
77612;SDS011;66777;52.282;5.960;2023-07-24T04:45:44;770.80;;;734.42;;
77612;SDS011;66777;52.282;5.960;2023-07-24T04:48:18;765.17;;;728.97;;
77612;SDS011;66777;52.282;5.960;2023-07-24T04:50:46;770.45;;;734.35;;
77612;SDS011;66777;52.282;5.960;2023-07-24T04:53:19;768.22;;;732.10;;
77612;SDS011;66777;52.282;5.960;2023-07-24T04:55:53;773.03;;;736.00;;
77612;SDS011;66777;52.282;5.960;2023-07-24T04:58:18;774.47;;;737.88;;
77612;SDS011;66777;52.282;5.960;2023-07-24T05:00:44;763.97;;;728.33;;
77612;SDS011;66777;52.282;5.960;2023-07-24T05:03:12;765.58;;;729.63;;
77612;SDS011;66777;52.282;5.960;2023-07-24T05:05:38;767.05;;;731.03;;
77612;SDS011;66777;52.282;5.960;2023-07-24T05:08:03;770.22;;;734.05;;
77612;SDS011;66777;52.282;5.960;2023-07-24T05:10:40;762.92;;;726.97;;
77612;SDS011;66777;52.282;5.960;2023-07-24T05:13:05;772.50;;;736.17;;
77612;SDS011;66777;52.282;5.960;2023-07-24T05:15:37;773.97;;;736.88;;
77612;SDS011;66777;52.282;5.960;2023-07-24T05:18:03;765.83;;;730.20;;
77612;SDS011;66777;52.282;5.960;2023-07-24T05:20:28;766.08;;;730.25;;
77612;SDS011;66777;52.282;5.960;2023-07-24T05:22:56;767.50;;;731.47;;
77612;SDS011;66777;52.282;5.960;2023-07-24T05:25:22;763.20;;;727.65;;
77612;SDS011;66777;52.282;5.960;2023-07-24T05:27:48;770.58;;;733.97;;
77612;SDS011;66777;52.282;5.960;2023-07-24T05:30:13;771.70;;;735.25;;
77612;SDS011;66777;52.282;5.960;2023-07-24T05:32:44;770.03;;;733.28;;
77612;SDS011;66777;52.282;5.960;2023-07-24T05:35:09;765.38;;;729.40;;
77612;SDS011;66777;52.282;5.960;2023-07-24T05:37:38;767.45;;;731.30;;
77612;SDS011;66777;52.282;5.960;2023-07-24T05:40:05;765.83;;;729.53;;
77612;SDS011;66777;52.282;5.960;2023-07-24T05:42:43;765.08;;;729.08;;
77612;SDS011;66777;52.282;5.960;2023-07-24T05:45:12;768.53;;;731.90;;
77612;SDS011;66777;52.282;5.960;2023-07-24T05:47:39;767.10;;;731.28;;
77612;SDS011;66777;52.282;5.960;2023-07-24T05:50:08;767.75;;;731.47;;
77612;SDS011;66777;52.282;5.960;2023-07-24T05:52:34;769.78;;;733.17;;
77612;SDS011;66777;52.282;5.960;2023-07-24T05:55:00;766.15;;;730.45;;
77612;SDS011;66777;52.282;5.960;2023-07-24T05:57:26;765.13;;;729.45;;
77612;SDS011;66777;52.282;5.960;2023-07-24T05:59:52;762.80;;;727.47;;
77612;SDS011;66777;52.282;5.960;2023-07-24T06:02:19;765.10;;;729.65;;
77612;SDS011;66777;52.282;5.960;2023-07-24T06:04:46;761.65;;;726.17;;
77612;SDS011;66777;52.282;5.960;2023-07-24T06:07:13;765.88;;;730.00;;
77612;SDS011;66777;52.282;5.960;2023-07-24T06:09:39;765.88;;;730.45;;
77612;SDS011;66777;52.282;5.960;2023-07-24T06:12:07;766.05;;;730.10;;
77612;SDS011;66777;52.282;5.960;2023-07-24T06:14:33;768.10;;;731.72;;
77612;SDS011;66777;52.282;5.960;2023-07-24T06:17:02;773.50;;;736.72;;
77612;SDS011;66777;52.282;5.960;2023-07-24T06:19:28;764.83;;;729.03;;
77612;SDS011;66777;52.282;5.960;2023-07-24T06:21:54;765.38;;;729.58;;
77612;SDS011;66777;52.282;5.960;2023-07-24T06:24:22;774.13;;;737.13;;
77612;SDS011;66777;52.282;5.960;2023-07-24T06:26:54;763.60;;;727.75;;
77612;SDS011;66777;52.282;5.960;2023-07-24T06:29:20;771.83;;;734.55;;
77612;SDS011;66777;52.282;5.960;2023-07-24T06:31:47;772.08;;;735.33;;
77612;SDS011;66777;52.282;5.960;2023-07-24T06:34:15;767.72;;;731.40;;
77612;SDS011;66777;52.282;5.960;2023-07-24T06:36:41;768.88;;;732.78;;
77612;SDS011;66777;52.282;5.960;2023-07-24T06:39:07;773.20;;;736.35;;
77612;SDS011;66777;52.282;5.960;2023-07-24T06:41:33;770.70;;;734.00;;
77612;SDS011;66777;52.282;5.960;2023-07-24T06:43:58;770.05;;;733.78;;
77612;SDS011;66777;52.282;5.960;2023-07-24T06:46:24;768.45;;;732.97;;
77612;SDS011;66777;52.282;5.960;2023-07-24T06:48:49;766.60;;;730.28;;
77612;SDS011;66777;52.282;5.960;2023-07-24T06:51:15;768.10;;;731.67;;
77612;SDS011;66777;52.282;5.960;2023-07-24T06:53:41;772.00;;;734.97;;
77612;SDS011;66777;52.282;5.960;2023-07-24T06:56:06;767.50;;;731.70;;
77612;SDS011;66777;52.282;5.960;2023-07-24T06:58:32;768.78;;;732.35;;
77612;SDS011;66777;52.282;5.960;2023-07-24T07:00:57;772.25;;;735.17;;
77612;SDS011;66777;52.282;5.960;2023-07-24T07:03:23;763.80;;;727.45;;
77612;SDS011;66777;52.282;5.960;2023-07-24T07:05:48;768.92;;;732.45;;
77612;SDS011;66777;52.282;5.960;2023-07-24T07:08:14;776.47;;;739.20;;
77612;SDS011;66777;52.282;5.960;2023-07-24T07:10:40;773.58;;;736.13;;
77612;SDS011;66777;52.282;5.960;2023-07-24T07:13:06;776.03;;;738.67;;
77612;SDS011;66777;52.282;5.960;2023-07-24T07:15:31;773.50;;;735.95;;
77612;SDS011;66777;52.282;5.960;2023-07-24T07:18:00;771.05;;;733.78;;
77612;SDS011;66777;52.282;5.960;2023-07-24T07:20:26;779.50;;;741.42;;
77612;SDS011;66777;52.282;5.960;2023-07-24T07:22:51;777.00;;;739.15;;
77612;SDS011;66777;52.282;5.960;2023-07-24T07:25:17;774.78;;;736.35;;
77612;SDS011;66777;52.282;5.960;2023-07-24T07:27:42;783.42;;;743.40;;
77612;SDS011;66777;52.282;5.960;2023-07-24T07:30:08;774.22;;;736.30;;
77612;SDS011;66777;52.282;5.960;2023-07-24T07:32:35;772.17;;;734.80;;
77612;SDS011;66777;52.282;5.960;2023-07-24T07:35:01;777.78;;;740.10;;
77612;SDS011;66777;52.282;5.960;2023-07-24T07:37:28;775.97;;;738.17;;
77612;SDS011;66777;52.282;5.960;2023-07-24T07:39:53;776.22;;;738.13;;
77612;SDS011;66777;52.282;5.960;2023-07-24T07:42:19;777.00;;;739.33;;
77612;SDS011;66777;52.282;5.960;2023-07-24T07:44:45;771.47;;;734.08;;
77612;SDS011;66777;52.282;5.960;2023-07-24T07:47:11;782.78;;;743.47;;
77612;SDS011;66777;52.282;5.960;2023-07-24T07:49:37;783.20;;;743.83;;
77612;SDS011;66777;52.282;5.960;2023-07-24T07:52:03;792.20;;;751.03;;
77612;SDS011;66777;52.282;5.960;2023-07-24T07:54:29;770.13;;;733.45;;
77612;SDS011;66777;52.282;5.960;2023-07-24T07:56:55;775.38;;;737.65;;
77612;SDS011;66777;52.282;5.960;2023-07-24T07:59:20;765.40;;;728.95;;
77612;SDS011;66777;52.282;5.960;2023-07-24T08:01:46;775.10;;;737.50;;
77612;SDS011;66777;52.282;5.960;2023-07-24T08:04:18;775.53;;;737.95;;
77612;SDS011;66777;52.282;5.960;2023-07-24T08:06:44;774.40;;;736.30;;
77612;SDS011;66777;52.282;5.960;2023-07-24T08:09:09;781.97;;;742.03;;
77612;SDS011;66777;52.282;5.960;2023-07-24T08:11:38;777.38;;;739.65;;
77612;SDS011;66777;52.282;5.960;2023-07-24T08:14:05;774.22;;;736.78;;
77612;SDS011;66777;52.282;5.960;2023-07-24T08:16:30;774.50;;;737.22;;
77612;SDS011;66777;52.282;5.960;2023-07-24T08:18:56;776.97;;;738.85;;
77612;SDS011;66777;52.282;5.960;2023-07-24T08:21:22;775.55;;;737.90;;
77612;SDS011;66777;52.282;5.960;2023-07-24T08:23:49;780.53;;;742.13;;
77612;SDS011;66777;52.282;5.960;2023-07-24T08:26:14;779.05;;;741.30;;
77612;SDS011;66777;52.282;5.960;2023-07-24T08:28:41;773.30;;;735.83;;
77612;SDS011;66777;52.282;5.960;2023-07-24T08:31:07;779.50;;;740.58;;
77612;SDS011;66777;52.282;5.960;2023-07-24T08:33:33;780.72;;;742.03;;
77612;SDS011;66777;52.282;5.960;2023-07-24T08:36:06;777.13;;;738.70;;
77612;SDS011;66777;52.282;5.960;2023-07-24T08:38:34;776.58;;;738.47;;
77612;SDS011;66777;52.282;5.960;2023-07-24T08:41:04;774.85;;;736.65;;
77612;SDS011;66777;52.282;5.960;2023-07-24T08:43:31;782.22;;;742.97;;
77612;SDS011;66777;52.282;5.960;2023-07-24T08:45:59;779.08;;;739.90;;
77612;SDS011;66777;52.282;5.960;2023-07-24T08:48:32;784.83;;;745.20;;
77612;SDS011;66777;52.282;5.960;2023-07-24T08:53:55;783.75;;;744.30;;
77612;SDS011;66777;52.282;5.960;2023-07-24T08:56:23;782.08;;;742.47;;
77612;SDS011;66777;52.282;5.960;2023-07-24T08:58:50;790.00;;;749.17;;
77612;SDS011;66777;52.282;5.960;2023-07-24T09:01:17;788.13;;;747.83;;
77612;SDS011;66777;52.282;5.960;2023-07-24T09:03:42;777.95;;;739.35;;
77612;SDS011;66777;52.282;5.960;2023-07-24T09:06:08;780.10;;;741.53;;
77612;SDS011;66777;52.282;5.960;2023-07-24T09:08:39;779.45;;;740.70;;
77612;SDS011;66777;52.282;5.960;2023-07-24T09:11:06;784.42;;;745.72;;
77612;SDS011;66777;52.282;5.960;2023-07-24T09:13:35;778.78;;;740.55;;
77612;SDS011;66777;52.282;5.960;2023-07-24T09:16:01;780.33;;;741.72;;
77612;SDS011;66777;52.282;5.960;2023-07-24T09:18:27;780.85;;;742.35;;
77612;SDS011;66777;52.282;5.960;2023-07-24T09:21:09;780.20;;;741.58;;
77612;SDS011;66777;52.282;5.960;2023-07-24T09:23:37;776.95;;;738.03;;
77612;SDS011;66777;52.282;5.960;2023-07-24T09:26:06;787.60;;;748.50;;
77612;SDS011;66777;52.282;5.960;2023-07-24T09:28:33;781.40;;;742.20;;
77612;SDS011;66777;52.282;5.960;2023-07-24T09:31:01;782.55;;;743.53;;
77612;SDS011;66777;52.282;5.960;2023-07-24T09:33:34;783.10;;;744.10;;
77612;SDS011;66777;52.282;5.960;2023-07-24T09:36:15;781.45;;;742.63;;
77612;SDS011;66777;52.282;5.960;2023-07-24T09:38:40;780.60;;;741.78;;
77612;SDS011;66777;52.282;5.960;2023-07-24T09:41:06;780.40;;;741.55;;
77612;SDS011;66777;52.282;5.960;2023-07-24T09:43:33;783.00;;;744.28;;
77612;SDS011;66777;52.282;5.960;2023-07-24T09:46:01;783.70;;;744.83;;
77612;SDS011;66777;52.282;5.960;2023-07-24T09:48:30;782.60;;;743.42;;
77612;SDS011;66777;52.282;5.960;2023-07-24T09:50:57;784.22;;;744.58;;
77612;SDS011;66777;52.282;5.960;2023-07-24T09:53:28;787.70;;;747.80;;
77612;SDS011;66777;52.282;5.960;2023-07-24T09:56:07;788.83;;;747.95;;
77612;SDS011;66777;52.282;5.960;2023-07-24T09:58:35;788.17;;;747.83;;
77612;SDS011;66777;52.282;5.960;2023-07-24T10:01:05;790.40;;;749.58;;
77612;SDS011;66777;52.282;5.960;2023-07-24T10:03:37;791.22;;;749.83;;
77612;SDS011;66777;52.282;5.960;2023-07-24T10:06:05;792.80;;;751.33;;
77612;SDS011;66777;52.282;5.960;2023-07-24T10:08:30;788.95;;;747.90;;
77612;SDS011;66777;52.282;5.960;2023-07-24T10:10:59;785.85;;;745.53;;
77612;SDS011;66777;52.282;5.960;2023-07-24T10:13:28;789.33;;;748.67;;
77612;SDS011;66777;52.282;5.960;2023-07-24T10:15:54;788.28;;;748.15;;
77612;SDS011;66777;52.282;5.960;2023-07-24T10:18:25;788.95;;;748.95;;
77612;SDS011;66777;52.282;5.960;2023-07-24T10:20:59;786.65;;;746.45;;
77612;SDS011;66777;52.282;5.960;2023-07-24T10:23:26;786.35;;;746.90;;
77612;SDS011;66777;52.282;5.960;2023-07-24T10:25:52;789.70;;;749.17;;
77612;SDS011;66777;52.282;5.960;2023-07-24T10:28:18;788.60;;;747.92;;
77612;SDS011;66777;52.282;5.960;2023-07-24T10:30:43;790.97;;;749.85;;
77612;SDS011;66777;52.282;5.960;2023-07-24T10:35:45;787.65;;;746.58;;
77612;SDS011;66777;52.282;5.960;2023-07-24T10:38:14;786.58;;;746.85;;
77612;SDS011;66777;52.282;5.960;2023-07-24T10:40:44;793.47;;;752.17;;
77612;SDS011;66777;52.282;5.960;2023-07-24T10:43:17;786.05;;;745.40;;
77612;SDS011;66777;52.282;5.960;2023-07-24T10:48:14;792.05;;;751.22;;
77612;SDS011;66777;52.282;5.960;2023-07-24T10:50:41;788.88;;;748.15;;
77612;SDS011;66777;52.282;5.960;2023-07-24T10:53:08;789.92;;;748.97;;
77612;SDS011;66777;52.282;5.960;2023-07-24T10:55:35;787.72;;;747.17;;
77612;SDS011;66777;52.282;5.960;2023-07-24T10:58:01;788.08;;;747.33;;
77612;SDS011;66777;52.282;5.960;2023-07-24T11:00:27;790.88;;;750.08;;
77612;SDS011;66777;52.282;5.960;2023-07-24T11:02:54;789.10;;;748.03;;
77612;SDS011;66777;52.282;5.960;2023-07-24T11:05:22;790.55;;;750.22;;
77612;SDS011;66777;52.282;5.960;2023-07-24T11:07:49;789.85;;;749.53;;
77612;SDS011;66777;52.282;5.960;2023-07-24T11:10:21;786.45;;;745.95;;
77612;SDS011;66777;52.282;5.960;2023-07-24T11:12:48;786.08;;;746.13;;
77612;SDS011;66777;52.282;5.960;2023-07-24T11:15:15;786.55;;;746.17;;
77612;SDS011;66777;52.282;5.960;2023-07-24T11:17:41;783.90;;;743.67;;
77612;SDS011;66777;52.282;5.960;2023-07-24T11:20:11;787.30;;;746.70;;
77612;SDS011;66777;52.282;5.960;2023-07-24T11:22:40;783.58;;;743.22;;
77612;SDS011;66777;52.282;5.960;2023-07-24T11:25:07;786.15;;;745.83;;
77612;SDS011;66777;52.282;5.960;2023-07-24T11:27:38;790.70;;;749.95;;
77612;SDS011;66777;52.282;5.960;2023-07-24T11:30:06;788.92;;;747.70;;
77612;SDS011;66777;52.282;5.960;2023-07-24T11:32:32;784.28;;;743.78;;
77612;SDS011;66777;52.282;5.960;2023-07-24T11:34:58;789.30;;;748.58;;
77612;SDS011;66777;52.282;5.960;2023-07-24T11:37:27;791.50;;;749.75;;
77612;SDS011;66777;52.282;5.960;2023-07-24T11:39:59;797.13;;;753.97;;
77612;SDS011;66777;52.282;5.960;2023-07-24T11:42:36;789.50;;;747.88;;
77612;SDS011;66777;52.282;5.960;2023-07-24T11:45:02;797.08;;;754.05;;
77612;SDS011;66777;52.282;5.960;2023-07-24T11:47:29;792.67;;;751.00;;
77612;SDS011;66777;52.282;5.960;2023-07-24T11:50:00;793.03;;;751.40;;
77612;SDS011;66777;52.282;5.960;2023-07-24T11:55:36;792.70;;;751.72;;
77612;SDS011;66777;52.282;5.960;2023-07-24T11:58:01;787.42;;;746.95;;
77612;SDS011;66777;52.282;5.960;2023-07-24T12:00:32;788.72;;;747.00;;
77612;SDS011;66777;52.282;5.960;2023-07-24T12:03:00;792.97;;;750.83;;
77612;SDS011;66777;52.282;5.960;2023-07-24T12:05:26;789.03;;;747.78;;
77612;SDS011;66777;52.282;5.960;2023-07-24T12:07:53;797.97;;;754.00;;
77612;SDS011;66777;52.282;5.960;2023-07-24T12:10:26;793.42;;;751.47;;
77612;SDS011;66777;52.282;5.960;2023-07-24T12:12:53;793.40;;;751.42;;
77612;SDS011;66777;52.282;5.960;2023-07-24T12:15:20;794.85;;;752.95;;
77612;SDS011;66777;52.282;5.960;2023-07-24T12:17:46;793.40;;;751.53;;
77612;SDS011;66777;52.282;5.960;2023-07-24T12:20:13;789.97;;;748.00;;
77612;SDS011;66777;52.282;5.960;2023-07-24T12:22:40;787.78;;;746.45;;
77612;SDS011;66777;52.282;5.960;2023-07-24T12:25:06;794.97;;;752.90;;
77612;SDS011;66777;52.282;5.960;2023-07-24T12:27:32;796.63;;;754.03;;
77612;SDS011;66777;52.282;5.960;2023-07-24T12:30:00;796.88;;;753.95;;
77612;SDS011;66777;52.282;5.960;2023-07-24T12:32:26;795.97;;;752.90;;
77612;SDS011;66777;52.282;5.960;2023-07-24T12:34:52;797.72;;;754.40;;
77612;SDS011;66777;52.282;5.960;2023-07-24T12:37:18;797.10;;;754.22;;
77612;SDS011;66777;52.282;5.960;2023-07-24T12:39:45;793.72;;;750.92;;
77612;SDS011;66777;52.282;5.960;2023-07-24T12:42:12;795.30;;;752.88;;
77612;SDS011;66777;52.282;5.960;2023-07-24T12:44:38;792.85;;;750.97;;
77612;SDS011;66777;52.282;5.960;2023-07-24T12:47:04;792.63;;;750.85;;
77612;SDS011;66777;52.282;5.960;2023-07-24T12:49:30;797.40;;;754.58;;
77612;SDS011;66777;52.282;5.960;2023-07-24T12:52:02;794.47;;;751.83;;
77612;SDS011;66777;52.282;5.960;2023-07-24T12:54:29;794.47;;;751.92;;
77612;SDS011;66777;52.282;5.960;2023-07-24T12:56:55;796.53;;;753.58;;
77612;SDS011;66777;52.282;5.960;2023-07-24T12:59:20;796.65;;;753.45;;
77612;SDS011;66777;52.282;5.960;2023-07-24T13:01:53;795.03;;;752.72;;
77612;SDS011;66777;52.282;5.960;2023-07-24T13:04:19;792.78;;;751.67;;
77612;SDS011;66777;52.282;5.960;2023-07-24T13:06:48;788.63;;;747.80;;
77612;SDS011;66777;52.282;5.960;2023-07-24T13:09:14;788.58;;;747.97;;
77612;SDS011;66777;52.282;5.960;2023-07-24T13:11:41;792.78;;;751.28;;
77612;SDS011;66777;52.282;5.960;2023-07-24T13:14:07;792.42;;;750.67;;
77612;SDS011;66777;52.282;5.960;2023-07-24T13:16:43;792.17;;;750.47;;
77612;SDS011;66777;52.282;5.960;2023-07-24T13:19:10;786.72;;;745.70;;
77612;SDS011;66777;52.282;5.960;2023-07-24T13:21:36;792.47;;;750.42;;
77612;SDS011;66777;52.282;5.960;2023-07-24T13:24:06;793.55;;;751.53;;
77612;SDS011;66777;52.282;5.960;2023-07-24T13:26:34;790.35;;;748.60;;
77612;SDS011;66777;52.282;5.960;2023-07-24T13:29:00;792.50;;;750.63;;
77612;SDS011;66777;52.282;5.960;2023-07-24T13:31:25;793.38;;;751.20;;
77612;SDS011;66777;52.282;5.960;2023-07-24T13:33:53;793.53;;;751.58;;
77612;SDS011;66777;52.282;5.960;2023-07-24T13:36:18;790.08;;;748.50;;
77612;SDS011;66777;52.282;5.960;2023-07-24T13:38:46;790.25;;;748.40;;
77612;SDS011;66777;52.282;5.960;2023-07-24T13:41:13;792.10;;;750.50;;
77612;SDS011;66777;52.282;5.960;2023-07-24T13:43:38;787.65;;;746.50;;
77612;SDS011;66777;52.282;5.960;2023-07-24T13:46:04;789.30;;;748.17;;
77612;SDS011;66777;52.282;5.960;2023-07-24T13:48:32;790.28;;;749.20;;
77612;SDS011;66777;52.282;5.960;2023-07-24T13:50:58;789.75;;;748.83;;
77612;SDS011;66777;52.282;5.960;2023-07-24T13:53:23;787.22;;;746.25;;
77612;SDS011;66777;52.282;5.960;2023-07-24T13:55:49;791.63;;;750.15;;
77612;SDS011;66777;52.282;5.960;2023-07-24T13:58:32;791.25;;;750.50;;
77612;SDS011;66777;52.282;5.960;2023-07-24T14:01:00;785.20;;;744.83;;
77612;SDS011;66777;52.282;5.960;2023-07-24T14:03:25;788.33;;;748.17;;
77612;SDS011;66777;52.282;5.960;2023-07-24T14:05:54;787.13;;;746.75;;
77612;SDS011;66777;52.282;5.960;2023-07-24T14:08:20;782.65;;;742.97;;
77612;SDS011;66777;52.282;5.960;2023-07-24T14:10:46;785.90;;;745.17;;
77612;SDS011;66777;52.282;5.960;2023-07-24T14:13:29;780.97;;;740.78;;
77612;SDS011;66777;52.282;5.960;2023-07-24T14:16:05;785.42;;;745.38;;